Date,TemperatureHighF,TemperatureAvgF,TemperatureLowF,DewpointHighF,DewpointAvgF,DewpointLowF,HumidityHigh,HumidityAvg,HumidityLow,PressureMaxIn,PressureMinIn,WindSpeedMaxMPH,WindSpeedAvgMPH,GustSpeedMaxMPH,PrecipitationSumIn
2013-9-1,93.4,83.5,75.6,64.9,58.9,53.8,63,44,32,29.94,29.83,18,4,18,0.00
2013-9-2,88.7,80.3,72.9,70.5,57.0,46.2,88,49,25,30.06,29.94,13,5,13,0.00
2013-9-3,89.1,77.1,63.7,60.8,52.6,43.5,77,46,22,30.09,30.00,11,2,11,0.00
2013-9-4,93.0,80.5,67.1,62.8,55.3,49.6,63,43,28,30.15,30.06,12,3,12,0.00
2013-9-5,95.7,81.7,68.2,61.9,56.9,50.7,69,45,25,30.18,30.06,12,4,12,0.00
2013-9-6,96.8,83.6,72.5,59.0,55.4,50.5,55,40,22,30.12,30.00,13,5,13,0.00
2013-9-7,98.4,85.1,73.4,59.4,56.1,50.2,57,39,21,30.03,29.94,13,4,13,0.00
2013-9-8,96.3,84.4,73.2,60.4,55.2,46.4,61,39,20,30.00,29.91,14,4,14,0.00
2013-9-9,93.0,82.0,72.0,59.0,54.2,47.8,61,40,23,30.00,29.91,17,5,18,0.00
2013-9-10,91.8,80.8,69.8,60.4,54.7,44.6,69,43,20,30.12,29.97,17,5,17,0.00
2013-9-11,93.9,81.2,67.8,58.6,53.6,49.6,57,40,23,30.18,30.03,13,3,13,0.00
2013-9-12,95.7,81.7,72.7,70.0,60.0,54.1,83,51,27,30.12,30.00,15,2,17,0.46
2013-9-13,82.2,75.3,70.9,65.5,59.7,44.1,81,60,35,30.09,29.97,13,4,13,0.00
2013-9-14,83.3,73.4,65.5,59.0,51.6,43.7,63,47,34,30.03,29.94,15,5,15,0.00
2013-9-15,94.1,79.6,68.5,60.8,53.5,46.6,58,42,25,30.06,29.97,15,4,15,0.00
2013-9-16,88.7,79.1,71.8,64.8,62.0,57.0,77,57,38,30.18,30.03,15,5,15,0.00
2013-9-17,89.6,77.2,70.2,67.5,61.6,54.7,88,61,34,30.12,29.97,15,4,15,0.00
2013-9-18,93.4,81.0,72.0,65.8,59.7,48.6,80,53,22,30.00,29.88,26,6,26,0.00
2013-9-19,89.1,77.0,71.2,67.6,62.3,57.4,86,62,38,30.00,29.88,17,4,17,0.17
2013-9-20,72.0,67.5,59.7,66.7,57.6,45.1,92,73,42,30.03,29.91,17,4,17,0.08
2013-9-21,80.4,66.4,53.4,54.0,46.2,38.5,84,53,23,30.06,29.94,12,2,12,0.00
2013-9-22,81.5,68.0,55.2,49.8,44.1,37.9,78,46,22,29.97,29.83,14,4,14,0.00
2013-9-23,82.6,69.7,57.0,49.3,45.3,40.5,73,44,23,29.88,29.77,18,6,18,0.00
2013-9-24,87.1,73.0,62.1,46.4,41.4,33.3,56,35,16,30.00,29.88,23,4,23,0.00
2013-9-25,88.9,72.5,55.8,56.3,46.8,40.3,80,44,19,29.94,29.80,13,3,13,0.00
2013-9-26,92.8,78.5,65.3,51.8,47.5,44.6,51,35,21,29.88,29.80,21,7,21,0.00
2013-9-27,88.3,77.5,64.9,63.3,54.7,47.3,70,47,30,29.94,29.83,20,7,20,0.00
2013-9-28,77.9,67.9,57.0,68.0,54.3,43.3,93,64,40,30.12,29.83,20,7,20,1.45
2013-9-29,78.1,62.7,48.7,53.8,42.9,37.2,83,53,24,30.12,29.94,9,1,10,0.00
2013-9-30,83.1,67.8,51.8,51.8,45.7,40.8,81,49,23,29.97,29.83,14,4,14,0.00